createdAt,value
2022-11-29T00:00:09.342Z,75.60
2022-11-29T00:02:41.575Z,75.10
2022-11-29T00:05:10.502Z,75.70
2022-11-29T00:07:41.107Z,75.40
2022-11-29T00:10:11.022Z,75.40
2022-11-29T00:12:38.393Z,75.00
2022-11-29T00:15:07.656Z,75.40
2022-11-29T00:17:37.257Z,75.50
2022-11-29T00:20:07.170Z,75.20
2022-11-29T00:22:35.830Z,75.00
2022-11-29T00:25:07.521Z,74.70
2022-11-29T00:27:36.299Z,74.80
2022-11-29T00:30:05.996Z,75.20
2022-11-29T00:32:34.694Z,75.20
2022-11-29T00:35:09.307Z,75.40
2022-11-29T00:37:38.813Z,75.70
2022-11-29T00:40:10.399Z,75.80
2022-11-29T00:42:39.027Z,75.40
2022-11-29T00:45:08.571Z,75.60
2022-11-29T00:47:37.158Z,75.80
2022-11-29T00:50:06.656Z,75.30
2022-11-29T00:52:45.813Z,75.70
2022-11-29T00:55:16.389Z,76.20
2022-11-29T00:57:45.138Z,77.10
2022-11-29T01:00:14.925Z,76.60
2022-11-29T01:02:43.560Z,76.10
2022-11-29T01:05:12.300Z,76.80
2022-11-29T01:07:40.906Z,76.60
2022-11-29T01:10:10.339Z,76.50
2022-11-29T01:12:41.630Z,76.00
2022-11-29T01:15:11.955Z,75.90
2022-11-29T01:17:41.884Z,75.60
2022-11-29T01:20:13.844Z,75.80
2022-11-29T01:22:43.059Z,76.10
2022-11-29T01:25:17.037Z,75.70
2022-11-29T01:27:47.277Z,75.80
2022-11-29T01:30:16.622Z,76.60
2022-11-29T01:32:45.316Z,76.50
2022-11-29T01:35:13.929Z,76.90
2022-11-29T01:37:42.384Z,77.20
2022-11-29T01:40:11.870Z,77.50
2022-11-29T01:42:41.582Z,77.20
2022-11-29T01:45:23.309Z,77.40
2022-11-29T01:47:56.445Z,77.30
2022-11-29T01:50:25.048Z,78.20
2022-11-29T01:52:54.157Z,78.20
2022-11-29T01:55:23.134Z,78.30
2022-11-29T01:57:52.385Z,79.10
2022-11-29T02:00:23.005Z,79.60
2022-11-29T02:02:57.413Z,79.20
2022-11-29T02:05:28.279Z,79.90
2022-11-29T02:07:59.853Z,79.80
2022-11-29T02:10:38.058Z,80.00
2022-11-29T02:13:16.368Z,79.60
2022-11-29T02:15:53.905Z,79.70
2022-11-29T02:18:28.363Z,80.10
2022-11-29T02:21:25.140Z,80.10
2022-11-29T02:24:17.582Z,80.10
2022-11-29T02:27:02.777Z,79.80
2022-11-29T02:30:01.171Z,79.90
2022-11-29T02:32:53.862Z,79.80
2022-11-29T02:35:30.117Z,79.40
2022-11-29T02:38:03.478Z,78.70
2022-11-29T02:40:43.654Z,79.10
2022-11-29T02:43:20.875Z,79.20
2022-11-29T02:46:01.944Z,78.90
2022-11-29T02:48:37.807Z,79.40
2022-11-29T02:51:11.105Z,79.30
2022-11-29T02:53:43.550Z,79.40
2022-11-29T02:56:14.478Z,79.50
2022-11-29T02:58:47.060Z,79.20
2022-11-29T03:01:18.646Z,78.80
2022-11-29T03:03:51.024Z,78.40
2022-11-29T03:06:24.751Z,78.20
2022-11-29T03:08:57.308Z,77.90
2022-11-29T03:11:30.380Z,78.00
2022-11-29T03:14:14.690Z,78.10
2022-11-29T03:16:49.739Z,78.60
2022-11-29T03:19:40.562Z,78.20
2022-11-29T03:22:19.483Z,78.80
2022-11-29T03:24:56.537Z,79.10
2022-11-29T03:27:37.575Z,79.10
2022-11-29T03:30:11.792Z,78.80
2022-11-29T03:32:49.900Z,78.50
2022-11-29T03:35:26.170Z,78.70
2022-11-29T03:38:04.461Z,78.70
2022-11-29T03:40:46.740Z,78.70
2022-11-29T03:43:19.803Z,79.70
2022-11-29T03:45:58.994Z,79.50
2022-11-29T03:48:34.711Z,79.60
2022-11-29T03:51:08.996Z,79.40
2022-11-29T03:53:49.535Z,79.40
2022-11-29T03:56:33.825Z,79.40
2022-11-29T03:59:25.486Z,79.30
2022-11-29T04:02:53.751Z,79.10
2022-11-29T04:06:05.581Z,79.40
2022-11-29T04:09:17.720Z,79.10
2022-11-29T04:12:18.740Z,79.10
2022-11-29T04:15:27.081Z,78.60
2022-11-29T04:18:25.825Z,79.10
2022-11-29T04:21:38.504Z,79.20
2022-11-29T04:24:50.249Z,79.50
2022-11-29T04:27:38.465Z,79.80
2022-11-29T04:30:18.999Z,79.40
2022-11-29T04:33:29.882Z,79.20
2022-11-29T04:36:32.490Z,79.40
2022-11-29T04:39:38.743Z,79.20
2022-11-29T04:42:35.609Z,79.00
2022-11-29T04:45:31.907Z,78.90
2022-11-29T04:48:12.202Z,78.80
2022-11-29T04:50:57.117Z,78.90
2022-11-29T04:53:34.600Z,79.20
2022-11-29T04:56:13.180Z,78.90
2022-11-29T04:58:53.801Z,79.20
2022-11-29T05:01:42.455Z,78.70
2022-11-29T05:04:22.842Z,79.20
2022-11-29T05:07:03.383Z,78.80
2022-11-29T05:09:56.944Z,78.70
2022-11-29T05:12:41.020Z,79.10
2022-11-29T05:15:43.236Z,79.60
2022-11-29T05:18:27.427Z,79.30
2022-11-29T05:21:07.311Z,79.20
2022-11-29T05:23:52.809Z,80.00
2022-11-29T05:26:31.432Z,81.20
2022-11-29T05:29:15.884Z,80.50
2022-11-29T05:31:59.810Z,80.50
2022-11-29T05:34:58.665Z,80.80
2022-11-29T05:37:36.499Z,81.00
2022-11-29T05:40:47.532Z,81.10
2022-11-29T05:43:50.002Z,81.30
2022-11-29T05:46:32.682Z,81.80
2022-11-29T05:49:17.814Z,81.40
2022-11-29T05:51:55.117Z,81.10
2022-11-29T05:54:32.672Z,81.60
2022-11-29T05:57:18.956Z,81.70
2022-11-29T05:59:51.411Z,82.00
2022-11-29T06:02:34.672Z,82.20
2022-11-29T06:05:15.001Z,82.30
2022-11-29T06:07:52.343Z,82.10
2022-11-29T06:10:27.276Z,82.20
2022-11-29T06:13:07.702Z,82.30
2022-11-29T06:15:57.376Z,82.60
2022-11-29T06:18:39.092Z,82.90
2022-11-29T06:21:25.711Z,82.60
2022-11-29T06:24:03.603Z,82.70
2022-11-29T06:26:46.631Z,82.80
2022-11-29T06:29:22.764Z,83.30
2022-11-29T06:31:55.098Z,83.50
2022-11-29T06:34:32.947Z,84.00
2022-11-29T06:37:04.839Z,84.00
2022-11-29T06:39:34.260Z,84.40
2022-11-29T06:42:03.403Z,84.50
2022-11-29T06:44:35.711Z,85.00
2022-11-29T06:47:07.870Z,85.40
2022-11-29T06:49:40.840Z,85.70
2022-11-29T06:52:18.278Z,86.00
2022-11-29T06:54:53.727Z,86.00
2022-11-29T06:57:30.505Z,86.00
2022-11-29T07:00:07.133Z,86.10
2022-11-29T07:02:46.089Z,86.10
2022-11-29T07:05:24.143Z,86.10
2022-11-29T07:07:55.063Z,85.30
2022-11-29T07:10:26.019Z,85.00
2022-11-29T07:13:01.263Z,84.40
2022-11-29T07:15:33.318Z,84.70
2022-11-29T07:18:15.939Z,84.60
2022-11-29T07:20:53.974Z,84.00
2022-11-29T07:23:30.399Z,83.40
2022-11-29T07:26:05.446Z,83.20
2022-11-29T07:28:42.874Z,83.20
2022-11-29T07:31:18.104Z,83.40
2022-11-29T07:33:57.916Z,82.80
2022-11-29T07:36:34.294Z,83.00
2022-11-29T07:39:12.281Z,83.50
2022-11-29T07:41:47.050Z,84.00
2022-11-29T07:44:20.752Z,84.40
2022-11-29T07:46:51.323Z,84.90
2022-11-29T07:49:22.499Z,85.20
2022-11-29T07:51:54.718Z,85.60
2022-11-29T07:54:25.530Z,86.00
2022-11-29T07:56:55.336Z,86.00
2022-11-29T07:59:27.817Z,86.00
2022-11-29T08:01:57.324Z,86.10
2022-11-29T08:04:29.506Z,85.80
2022-11-29T08:07:03.362Z,84.90
2022-11-29T08:09:45.669Z,85.20
2022-11-29T08:12:22.229Z,85.10
2022-11-29T08:14:54.293Z,86.00
2022-11-29T08:17:34.215Z,85.80
2022-11-29T08:20:04.495Z,85.40
2022-11-29T08:22:37.968Z,86.00
2022-11-29T08:25:08.153Z,86.00
2022-11-29T08:27:42.398Z,86.00
2022-11-29T08:30:11.809Z,86.60
2022-11-29T08:32:48.465Z,86.80
2022-11-29T08:35:20.322Z,87.40
2022-11-29T08:37:50.238Z,87.30
2022-11-29T08:40:20.533Z,87.30
2022-11-29T08:43:06.767Z,87.90
2022-11-29T08:45:41.335Z,88.50
2022-11-29T08:48:10.196Z,88.50
2022-11-29T08:50:38.897Z,87.90
2022-11-29T08:53:27.824Z,87.70
2022-11-29T08:56:01.634Z,87.70
2022-11-29T08:58:40.612Z,87.30
2022-11-29T09:01:23.917Z,87.00
2022-11-29T09:04:03.057Z,87.10
2022-11-29T09:06:34.905Z,87.10
2022-11-29T09:09:05.820Z,87.50
2022-11-29T09:11:36.038Z,87.70
2022-11-29T09:14:08.103Z,87.50
2022-11-29T09:16:38.643Z,87.30
2022-11-29T09:19:08.419Z,87.70
2022-11-29T09:21:38.574Z,87.40
2022-11-29T09:24:10.369Z,87.70
2022-11-29T09:26:41.761Z,87.30
2022-11-29T09:29:26.139Z,87.00
2022-11-29T09:31:58.959Z,87.00
2022-11-29T09:34:27.690Z,87.30
2022-11-29T09:36:56.597Z,86.80
2022-11-29T09:39:26.827Z,86.70
2022-11-29T09:42:24.768Z,86.20
2022-11-29T09:45:03.574Z,86.20
2022-11-29T09:47:58.971Z,86.30
2022-11-29T09:50:51.131Z,86.30
2022-11-29T09:53:43.780Z,86.30
2022-11-29T09:56:23.748Z,86.40
2022-11-29T09:59:02.035Z,85.70
2022-11-29T10:01:34.702Z,85.80
2022-11-29T10:04:08.166Z,85.90
2022-11-29T10:06:41.217Z,85.70
2022-11-29T10:09:18.711Z,85.20
2022-11-29T10:12:01.068Z,85.60
2022-11-29T10:14:35.594Z,85.50
2022-11-29T10:17:15.205Z,85.50
2022-11-29T10:19:48.530Z,85.50
2022-11-29T10:22:23.110Z,85.70
2022-11-29T10:24:55.947Z,85.30
2022-11-29T10:27:29.787Z,85.40
2022-11-29T10:30:02.594Z,86.90
2022-11-29T10:32:33.337Z,86.10
2022-11-29T10:35:02.377Z,86.10
2022-11-29T10:37:33.047Z,87.00
2022-11-29T10:40:07.818Z,86.30
2022-11-29T10:42:53.349Z,86.40
2022-11-29T10:45:31.145Z,86.30
2022-11-29T10:48:04.548Z,86.40
2022-11-29T10:50:36.368Z,86.40
2022-11-29T10:53:08.160Z,86.50
2022-11-29T10:55:41.853Z,86.50
2022-11-29T10:58:15.947Z,86.40
2022-11-29T11:00:52.912Z,86.50
2022-11-29T11:03:39.406Z,86.30
2022-11-29T11:06:12.366Z,86.40
2022-11-29T11:08:44.584Z,87.10
2022-11-29T11:11:15.254Z,86.80
2022-11-29T11:13:57.994Z,86.60
2022-11-29T11:16:31.555Z,86.60
2022-11-29T11:19:26.264Z,86.50
2022-11-29T11:21:58.822Z,86.70
2022-11-29T11:24:30.046Z,87.40
2022-11-29T11:26:59.345Z,86.50
2022-11-29T11:29:36.570Z,86.50
2022-11-29T11:32:08.924Z,86.40
2022-11-29T11:34:39.003Z,85.40
2022-11-29T11:37:22.038Z,85.00
2022-11-29T11:39:52.870Z,85.00
2022-11-29T11:42:38.647Z,85.30
2022-11-29T11:45:32.566Z,86.30
2022-11-29T11:48:13.278Z,86.30
2022-11-29T11:50:46.371Z,86.60
2022-11-29T11:53:22.249Z,86.60
2022-11-29T11:55:59.049Z,86.60
2022-11-29T11:58:30.271Z,86.50
2022-11-29T12:01:04.779Z,86.40
2022-11-29T12:03:53.123Z,85.40
2022-11-29T12:06:41.259Z,86.50
2022-11-29T12:09:19.579Z,86.60
2022-11-29T12:11:56.543Z,86.50
2022-11-29T12:14:34.308Z,86.70
2022-11-29T12:17:18.445Z,86.60
2022-11-29T12:20:00.767Z,86.10
2022-11-29T12:22:41.573Z,85.80
2022-11-29T12:25:19.293Z,85.90
2022-11-29T12:27:49.852Z,86.50
2022-11-29T12:30:19.375Z,86.50
2022-11-29T12:33:23.997Z,86.60
2022-11-29T12:36:10.544Z,86.60
2022-11-29T12:39:01.407Z,86.60
2022-11-29T12:41:35.962Z,86.70
2022-11-29T12:44:14.431Z,86.20
2022-11-29T12:46:54.315Z,85.70
2022-11-29T12:49:33.340Z,85.40
2022-11-29T12:52:09.567Z,85.70
2022-11-29T12:54:51.432Z,86.10
2022-11-29T12:57:28.640Z,85.40
2022-11-29T13:00:12.455Z,85.20
2022-11-29T13:02:54.563Z,85.40
2022-11-29T13:05:34.539Z,85.20
2022-11-29T13:08:30.271Z,85.30
2022-11-29T13:11:07.555Z,85.40
2022-11-29T13:13:42.365Z,84.50
2022-11-29T13:16:32.758Z,84.80
2022-11-29T13:19:06.678Z,85.10
2022-11-29T13:21:43.151Z,84.50
2022-11-29T13:24:16.070Z,84.40
2022-11-29T13:26:46.098Z,84.30
2022-11-29T13:29:18.740Z,84.60
2022-11-29T13:31:48.614Z,84.30
2022-11-29T13:34:23.680Z,84.10
2022-11-29T13:37:06.256Z,84.00
2022-11-29T13:39:44.422Z,84.20
2022-11-29T13:42:22.596Z,84.10
2022-11-29T13:44:59.371Z,84.20
2022-11-29T13:47:28.223Z,84.80
2022-11-29T13:49:59.279Z,84.30
2022-11-29T13:52:42.757Z,84.50
2022-11-29T13:55:29.016Z,84.70
2022-11-29T13:58:16.697Z,84.50
2022-11-29T14:00:52.202Z,84.80
2022-11-29T14:03:32.563Z,84.90
2022-11-29T14:06:11.482Z,85.10
2022-11-29T14:09:17.381Z,85.30
2022-11-29T14:11:45.318Z,85.20
2022-11-29T14:14:26.730Z,85.20
2022-11-29T14:16:59.660Z,85.30
2022-11-29T14:19:33.841Z,85.30
2022-11-29T14:22:21.190Z,85.50
2022-11-29T14:28:31.371Z,85.80
2022-11-29T14:31:02.100Z,85.70
2022-11-29T14:33:40.381Z,85.80
2022-11-29T14:36:31.171Z,85.20
2022-11-29T14:39:27.499Z,85.80
2022-11-29T14:42:06.635Z,85.60
2022-11-29T14:44:37.603Z,85.00
2022-11-29T14:47:07.933Z,85.80
2022-11-29T14:49:40.936Z,86.40
2022-11-29T14:52:11.533Z,86.60
2022-11-29T14:54:56.017Z,86.70
2022-11-29T14:58:06.137Z,86.70
2022-11-29T15:01:08.120Z,86.70
2022-11-29T15:03:46.766Z,86.70
2022-11-29T15:06:17.470Z,86.20
2022-11-29T15:08:56.069Z,85.70
2022-11-29T15:11:35.404Z,86.60
2022-11-29T15:14:07.823Z,86.80
2022-11-29T15:17:01.230Z,86.60
2022-11-29T15:19:56.830Z,86.80
2022-11-29T15:22:29.811Z,86.40
2022-11-29T15:25:02.677Z,85.80
2022-11-29T15:27:32.751Z,85.80
2022-11-29T15:30:18.519Z,85.70
2022-11-29T15:32:49.236Z,85.60
2022-11-29T15:35:20.060Z,85.40
2022-11-29T15:37:50.319Z,85.10
2022-11-29T15:40:21.003Z,85.10
2022-11-29T15:42:53.734Z,85.00
2022-11-29T15:45:24.462Z,84.50
2022-11-29T15:47:55.527Z,84.60
2022-11-29T15:50:26.299Z,84.60
2022-11-29T15:52:57.385Z,84.60
2022-11-29T15:55:27.261Z,84.60
2022-11-29T15:57:57.705Z,84.70
2022-11-29T16:00:28.283Z,84.80
2022-11-29T16:02:59.863Z,84.80
2022-11-29T16:05:31.209Z,84.90
2022-11-29T16:08:03.347Z,84.70
2022-11-29T16:10:37.868Z,85.40
2022-11-29T16:13:08.938Z,85.00
2022-11-29T16:15:40.162Z,84.90
2022-11-29T16:18:15.124Z,84.80
2022-11-29T16:20:45.609Z,84.80
2022-11-29T16:23:26.930Z,84.60
2022-11-29T16:26:00.974Z,84.60
2022-11-29T16:35:04.650Z,84.40
2022-11-29T16:37:49.523Z,84.80
2022-11-29T16:47:45.122Z,84.10
2022-11-29T16:54:16.795Z,84.60
2022-11-29T16:57:23.119Z,84.10
2022-11-29T17:00:36.584Z,84.00
2022-11-29T17:03:23.086Z,83.70
2022-11-29T17:09:19.750Z,83.60
2022-11-29T17:12:36.455Z,83.50
2022-11-29T17:15:16.437Z,83.40
2022-11-29T17:17:56.298Z,83.70
2022-11-29T17:20:45.731Z,83.80
2022-11-29T17:23:48.480Z,83.80
2022-11-29T17:30:27.467Z,83.90
2022-11-29T17:33:13.199Z,84.00
2022-11-29T17:36:47.304Z,83.90
2022-11-29T17:39:03.367Z,84.00
2022-11-29T17:42:08.926Z,83.70
2022-11-29T17:45:10.323Z,84.00
2022-11-29T17:48:23.498Z,84.10
2022-11-29T17:51:52.120Z,84.20
2022-11-29T17:54:48.847Z,83.90
2022-11-29T17:58:22.944Z,84.00
2022-11-29T18:01:43.463Z,84.10
2022-11-29T18:11:46.453Z,84.00
2022-11-29T18:15:03.004Z,84.00
2022-11-29T18:18:10.694Z,84.40
2022-11-29T18:21:24.954Z,83.80
2022-11-29T18:24:46.523Z,84.20
2022-11-29T18:30:57.382Z,83.80
2022-11-29T18:33:56.436Z,83.90
2022-11-29T18:36:48.277Z,83.80
2022-11-29T18:42:45.221Z,84.00
2022-11-29T18:45:21.449Z,83.90
2022-11-29T18:48:51.017Z,84.00
2022-11-29T18:51:21.349Z,83.80
2022-11-29T18:54:06.062Z,83.80
2022-11-29T18:56:46.198Z,83.70
2022-11-29T19:02:23.345Z,84.10
2022-11-29T19:05:46.251Z,84.30
2022-11-29T19:08:52.596Z,84.40
2022-11-29T19:11:44.447Z,84.70
2022-11-29T19:18:04.302Z,84.80
2022-11-29T19:20:54.714Z,84.90
2022-11-29T19:24:44.624Z,85.10
2022-11-29T19:28:49.867Z,85.50
2022-11-29T19:36:04.206Z,84.70
2022-11-29T19:39:54.305Z,84.60
2022-11-29T19:43:35.488Z,84.30
2022-11-29T19:50:50.490Z,82.90
2022-11-29T19:53:57.890Z,82.70
2022-11-29T20:01:03.547Z,82.60
2022-11-29T20:04:48.710Z,83.10
2022-11-29T20:08:21.126Z,83.90
2022-11-29T20:12:54.748Z,83.80
2022-11-29T20:17:16.898Z,84.30
2022-11-29T20:28:56.278Z,85.20
2022-11-29T20:32:00.759Z,84.30
2022-11-29T20:40:38.076Z,84.20
2022-11-29T20:45:09.456Z,84.00
2022-11-29T20:48:25.303Z,83.80
2022-11-29T21:00:12.930Z,83.30
2022-11-29T21:07:15.390Z,81.90
2022-11-29T21:10:44.809Z,82.60
2022-11-29T21:15:17.584Z,83.40
2022-11-29T21:18:59.888Z,83.10
2022-11-29T21:22:36.516Z,82.50
2022-11-29T21:25:43.881Z,82.00
2022-11-29T21:28:51.881Z,81.60
2022-11-29T21:33:11.063Z,81.20
2022-11-29T21:37:35.277Z,81.30
2022-11-29T21:44:05.987Z,81.50
2022-11-29T21:46:35.388Z,81.90
2022-11-29T21:49:03.718Z,81.90
2022-11-29T21:51:31.981Z,81.80
2022-11-29T21:54:00.271Z,81.80
2022-11-29T21:56:29.053Z,81.40
2022-11-29T21:58:58.860Z,81.00
2022-11-29T22:01:28.265Z,80.90
2022-11-29T22:03:56.949Z,80.40
2022-11-29T22:06:26.278Z,80.20
2022-11-29T22:08:54.862Z,80.00
2022-11-29T22:11:31.723Z,79.60
2022-11-29T22:14:15.372Z,80.00
2022-11-29T22:16:45.580Z,80.20
2022-11-29T22:19:15.428Z,80.50
2022-11-29T22:21:43.886Z,80.40
2022-11-29T22:24:13.227Z,80.30
2022-11-29T22:26:43.528Z,80.40
2022-11-29T22:29:14.075Z,80.70
2022-11-29T22:31:42.246Z,80.90
2022-11-29T22:34:10.503Z,81.30
2022-11-29T22:36:38.675Z,81.00
2022-11-29T22:39:07.511Z,81.00
2022-11-29T22:41:37.218Z,80.60
2022-11-29T22:44:05.657Z,80.40
2022-11-29T22:46:36.102Z,80.30
2022-11-29T22:49:05.339Z,80.50
2022-11-29T22:51:35.576Z,80.50
2022-11-29T22:54:05.687Z,80.30
2022-11-29T22:56:36.060Z,79.80
2022-11-29T22:59:04.561Z,80.20
2022-11-29T23:01:33.413Z,80.50
2022-11-29T23:04:03.999Z,81.20
2022-11-29T23:06:34.143Z,81.80
2022-11-29T23:09:07.911Z,82.40
2022-11-29T23:11:36.114Z,82.90
2022-11-29T23:14:04.281Z,83.30
2022-11-29T23:16:32.868Z,83.60
2022-11-29T23:19:01.737Z,83.70
2022-11-29T23:21:35.027Z,83.60
2022-11-29T23:24:03.734Z,83.50
2022-11-29T23:26:36.430Z,83.60
2022-11-29T23:29:05.551Z,83.30
2022-11-29T23:31:34.682Z,83.20
2022-11-29T23:34:03.438Z,82.90
2022-11-29T23:36:33.049Z,82.80
2022-11-29T23:39:01.430Z,82.70
2022-11-29T23:41:29.709Z,82.90
2022-11-29T23:43:59.626Z,82.40
2022-11-29T23:46:27.886Z,82.50
2022-11-29T23:48:56.145Z,82.50
2022-11-29T23:51:24.287Z,82.20
2022-11-29T23:53:54.541Z,82.00
2022-11-29T23:56:23.059Z,82.10
2022-11-29T23:58:51.360Z,81.70
